createdAt,value
2023-02-26T00:01:42.166Z,7.99
2023-02-26T00:04:10.811Z,7.99
2023-02-26T00:06:53.224Z,7.99
2023-02-26T00:09:24.402Z,8.00
2023-02-26T00:11:52.381Z,8.00
2023-02-26T00:14:21.553Z,7.99
2023-02-26T00:17:18.205Z,7.98
2023-02-26T00:19:46.167Z,7.95
2023-02-26T00:22:14.204Z,7.94
2023-02-26T00:24:42.401Z,7.90
2023-02-26T00:27:11.789Z,7.88
2023-02-26T00:29:40.041Z,7.86
2023-02-26T00:32:08.133Z,7.85
2023-02-26T00:34:37.354Z,7.83
2023-02-26T00:37:07.116Z,7.80
2023-02-26T00:39:46.613Z,7.82
2023-02-26T00:42:15.113Z,7.78
2023-02-26T00:44:44.637Z,7.78
2023-02-26T00:47:30.455Z,7.75
2023-02-26T00:50:14.101Z,7.77
2023-02-26T00:53:02.397Z,7.73
2023-02-26T00:55:31.302Z,7.68
2023-02-26T00:57:58.987Z,7.66
2023-02-26T01:00:27.109Z,7.64
2023-02-26T01:02:55.203Z,7.62
2023-02-26T01:05:23.233Z,7.64
2023-02-26T01:07:54.531Z,7.59
2023-02-26T01:10:22.802Z,7.57
2023-02-26T01:12:54.105Z,7.53
2023-02-26T01:15:22.227Z,7.51
2023-02-26T01:18:14.298Z,7.49
2023-02-26T01:20:56.788Z,7.46
2023-02-26T01:23:35.508Z,7.42
2023-02-26T01:26:10.702Z,7.40
2023-02-26T01:28:38.856Z,7.38
2023-02-26T01:31:15.805Z,7.30
2023-02-26T01:33:51.627Z,7.28
2023-02-26T01:36:25.354Z,7.26
2023-02-26T01:39:06.487Z,7.26
2023-02-26T01:41:36.853Z,7.26
2023-02-26T01:44:25.522Z,7.23
2023-02-26T01:47:05.595Z,7.17
2023-02-26T01:49:35.271Z,7.20
2023-02-26T01:52:08.286Z,7.16
2023-02-26T01:54:39.270Z,7.19
2023-02-26T01:57:18.700Z,7.19
2023-02-26T01:59:51.330Z,7.16
2023-02-26T02:02:23.122Z,7.18
2023-02-26T02:04:51.564Z,7.18
2023-02-26T02:07:20.731Z,7.16
2023-02-26T02:09:48.588Z,7.14
2023-02-26T02:12:35.789Z,7.16
2023-02-26T02:15:17.051Z,7.24
2023-02-26T02:18:08.802Z,7.15
2023-02-26T02:21:16.795Z,7.18
2023-02-26T02:24:11.760Z,7.18
2023-02-26T02:26:59.138Z,7.15
2023-02-26T02:29:45.252Z,7.17
2023-02-26T02:32:31.111Z,7.19
2023-02-26T02:35:12.936Z,7.18
2023-02-26T02:37:58.946Z,7.25
2023-02-26T02:40:39.445Z,7.23
2023-02-26T02:43:15.042Z,7.15
2023-02-26T02:45:54.571Z,7.07
2023-02-26T02:48:32.354Z,7.09
2023-02-26T02:51:09.997Z,7.03
2023-02-26T02:53:48.208Z,7.01
2023-02-26T02:56:21.633Z,6.98
2023-02-26T02:58:56.136Z,6.97
2023-02-26T03:01:27.807Z,6.97
2023-02-26T03:04:02.662Z,6.94
2023-02-26T03:06:32.690Z,6.95
2023-02-26T03:09:09.620Z,7.03
2023-02-26T03:11:41.977Z,6.99
2023-02-26T03:14:10.827Z,6.96
2023-02-26T03:17:02.241Z,6.90
2023-02-26T03:19:57.980Z,6.95
2023-02-26T03:23:09.388Z,6.91
2023-02-26T03:26:01.094Z,6.94
2023-02-26T03:28:44.327Z,6.95
2023-02-26T03:31:23.354Z,6.96
2023-02-26T03:33:50.937Z,6.91
2023-02-26T03:36:25.969Z,6.92
2023-02-26T03:39:07.764Z,6.95
2023-02-26T03:41:44.362Z,6.93
2023-02-26T03:44:24.510Z,6.86
2023-02-26T03:46:58.774Z,6.81
2023-02-26T03:49:42.310Z,6.87
2023-02-26T03:52:12.483Z,6.89
2023-02-26T03:55:19.407Z,6.89
2023-02-26T03:57:53.976Z,6.89
2023-02-26T04:00:30.335Z,6.96
2023-02-26T04:03:33.244Z,6.90
2023-02-26T04:06:02.099Z,6.87
2023-02-26T04:08:33.286Z,6.94
2023-02-26T04:11:09.218Z,6.89
2023-02-26T04:13:38.413Z,6.79
2023-02-26T04:16:06.796Z,6.80
2023-02-26T04:18:34.472Z,6.75
2023-02-26T04:21:02.917Z,6.67
2023-02-26T04:23:30.930Z,6.58
2023-02-26T04:25:59.487Z,6.52
2023-02-26T04:28:27.783Z,6.45
2023-02-26T04:30:57.999Z,6.33
2023-02-26T04:33:27.024Z,6.32
2023-02-26T04:35:54.552Z,6.28
2023-02-26T04:38:22.326Z,6.25
2023-02-26T04:40:51.023Z,6.19
2023-02-26T04:43:20.075Z,6.17
2023-02-26T04:46:17.377Z,6.11
2023-02-26T04:48:45.051Z,6.10
2023-02-26T04:51:12.743Z,6.02
2023-02-26T04:53:40.717Z,6.03
2023-02-26T04:56:08.380Z,6.08
2023-02-26T04:58:36.174Z,6.08
2023-02-26T05:01:13.757Z,6.08
2023-02-26T05:03:41.470Z,6.02
2023-02-26T05:06:09.279Z,5.95
2023-02-26T05:08:42.328Z,5.91
2023-02-26T05:11:11.400Z,5.95
2023-02-26T05:13:39.717Z,5.94
2023-02-26T05:16:08.345Z,5.87
2023-02-26T05:18:37.458Z,5.91
2023-02-26T05:21:05.722Z,5.93
2023-02-26T05:23:34.821Z,5.88
2023-02-26T05:26:02.614Z,5.90
2023-02-26T05:28:31.358Z,5.91
2023-02-26T05:30:59.138Z,5.95
2023-02-26T05:33:27.226Z,5.88
2023-02-26T05:35:55.308Z,5.87
2023-02-26T05:38:23.195Z,5.85
2023-02-26T05:40:50.878Z,5.86
2023-02-26T05:43:18.681Z,5.85
2023-02-26T05:45:47.136Z,5.86
2023-02-26T05:48:17.818Z,5.85
2023-02-26T05:50:45.556Z,5.73
2023-02-26T05:53:12.930Z,5.65
2023-02-26T05:55:41.184Z,5.61
2023-02-26T05:58:11.347Z,5.62
2023-02-26T06:00:39.369Z,5.53
2023-02-26T06:03:08.404Z,5.59
2023-02-26T06:05:39.582Z,5.52
2023-02-26T06:08:07.412Z,5.55
2023-02-26T06:10:35.100Z,5.52
2023-02-26T06:13:03.124Z,5.52
2023-02-26T06:15:30.742Z,5.53
2023-02-26T06:17:58.663Z,5.46
2023-02-26T06:20:26.181Z,5.51
2023-02-26T06:22:54.474Z,5.55
2023-02-26T06:25:22.769Z,5.55
2023-02-26T06:27:50.495Z,5.60
2023-02-26T06:30:18.606Z,5.60
2023-02-26T06:32:47.289Z,5.64
2023-02-26T06:35:15.120Z,5.65
2023-02-26T06:37:43.297Z,5.70
2023-02-26T06:40:12.082Z,5.73
2023-02-26T06:42:39.724Z,5.68
2023-02-26T06:45:08.015Z,5.69
2023-02-26T06:47:35.851Z,5.69
2023-02-26T06:50:04.304Z,5.63
2023-02-26T06:52:33.216Z,5.61
2023-02-26T06:55:03.945Z,5.60
2023-02-26T06:57:31.909Z,5.58
2023-02-26T07:00:01.161Z,5.59
2023-02-26T07:02:29.191Z,5.58
2023-02-26T07:04:57.754Z,5.61
2023-02-26T07:07:25.861Z,5.61
2023-02-26T07:09:53.500Z,5.59
2023-02-26T07:12:21.057Z,5.60
2023-02-26T07:14:49.455Z,5.62
2023-02-26T07:17:21.520Z,5.60
2023-02-26T07:19:50.957Z,5.57
2023-02-26T07:22:21.870Z,5.61
2023-02-26T07:24:51.361Z,5.66
2023-02-26T07:27:19.387Z,5.67
2023-02-26T07:29:52.405Z,5.71
2023-02-26T07:32:20.284Z,5.74
2023-02-26T07:34:48.092Z,5.76
2023-02-26T07:37:15.875Z,5.70
2023-02-26T07:39:43.773Z,5.66
2023-02-26T07:42:13.007Z,5.77
2023-02-26T07:44:43.648Z,5.85
2023-02-26T07:47:12.144Z,5.91
2023-02-26T07:49:40.213Z,5.90
2023-02-26T07:52:14.815Z,5.93
2023-02-26T07:54:42.700Z,6.03
2023-02-26T07:57:12.539Z,6.07
2023-02-26T07:59:40.770Z,6.03
2023-02-26T08:02:08.397Z,6.07
2023-02-26T08:04:36.572Z,6.18
2023-02-26T08:07:04.540Z,6.27
2023-02-26T08:09:33.275Z,6.39
2023-02-26T08:12:01.405Z,6.47
2023-02-26T08:14:29.102Z,6.52
2023-02-26T08:16:56.794Z,6.58
2023-02-26T08:19:24.497Z,6.61
2023-02-26T08:21:55.352Z,6.63
2023-02-26T08:24:23.099Z,6.67
2023-02-26T08:26:51.770Z,6.69
2023-02-26T08:29:20.419Z,6.67
2023-02-26T08:31:49.244Z,6.67
2023-02-26T08:34:17.614Z,6.77
2023-02-26T08:36:45.438Z,6.79
2023-02-26T08:39:13.101Z,6.73
2023-02-26T08:41:40.894Z,6.85
2023-02-26T08:44:08.489Z,6.91
2023-02-26T08:46:37.096Z,6.93
2023-02-26T08:49:04.751Z,6.93
2023-02-26T08:51:33.650Z,6.73
2023-02-26T08:54:01.387Z,6.71
2023-02-26T08:56:29.917Z,6.72
2023-02-26T08:58:57.536Z,6.66
2023-02-26T09:01:25.509Z,6.79
2023-02-26T09:03:53.413Z,6.89
2023-02-26T09:06:20.976Z,6.90
2023-02-26T09:08:49.471Z,6.83
2023-02-26T09:11:17.186Z,6.86
2023-02-26T09:13:44.958Z,6.82
2023-02-26T09:16:13.516Z,6.88
2023-02-26T09:18:42.543Z,6.98
2023-02-26T09:21:10.480Z,6.91
2023-02-26T09:23:38.140Z,6.87
2023-02-26T09:26:08.978Z,6.94
2023-02-26T09:28:36.820Z,7.11
2023-02-26T09:31:08.246Z,7.06
2023-02-26T09:33:36.699Z,7.09
2023-02-26T09:36:05.029Z,7.17
2023-02-26T09:38:32.615Z,7.10
2023-02-26T09:41:08.514Z,7.25
2023-02-26T09:43:58.749Z,7.29
2023-02-26T09:46:34.045Z,7.28
2023-02-26T09:49:28.906Z,7.25
2023-02-26T09:52:04.804Z,7.13
2023-02-26T09:54:41.794Z,7.10
2023-02-26T09:57:14.128Z,7.18
2023-02-26T09:59:42.389Z,7.18
2023-02-26T10:02:21.401Z,7.22
2023-02-26T10:05:00.356Z,7.17
2023-02-26T10:07:42.560Z,7.30
2023-02-26T10:10:35.528Z,7.38
2023-02-26T10:13:36.834Z,7.36
2023-02-26T10:16:14.886Z,7.24
2023-02-26T10:18:54.042Z,7.17
2023-02-26T10:21:46.811Z,7.25
2023-02-26T10:24:22.794Z,7.06
2023-02-26T10:27:10.266Z,7.03
2023-02-26T10:29:48.296Z,7.10
2023-02-26T10:32:38.930Z,7.16
2023-02-26T10:35:12.412Z,7.18
2023-02-26T10:38:02.990Z,7.12
2023-02-26T10:40:42.666Z,7.15
2023-02-26T10:43:16.880Z,7.10
2023-02-26T10:46:00.675Z,7.12
2023-02-26T10:49:18.912Z,7.11
2023-02-26T10:51:47.462Z,7.15
2023-02-26T10:54:24.908Z,7.00
2023-02-26T10:56:52.714Z,7.04
2023-02-26T10:59:21.928Z,7.07
2023-02-26T11:01:51.191Z,7.07
2023-02-26T11:04:23.579Z,7.03
2023-02-26T11:06:55.113Z,7.04
2023-02-26T11:09:26.926Z,6.98
2023-02-26T11:12:01.831Z,6.93
2023-02-26T11:14:32.960Z,7.09
2023-02-26T11:17:11.103Z,7.13
2023-02-26T11:19:49.908Z,7.27
2023-02-26T11:22:18.684Z,7.27
2023-02-26T11:24:49.020Z,7.19
2023-02-26T11:27:24.159Z,7.02
2023-02-26T11:30:03.729Z,7.10
2023-02-26T11:32:33.994Z,7.09
2023-02-26T11:35:08.939Z,7.16
2023-02-26T11:37:42.314Z,7.30
2023-02-26T11:40:22.236Z,7.42
2023-02-26T11:42:55.165Z,7.40
2023-02-26T11:45:23.014Z,7.44
2023-02-26T11:48:02.430Z,7.42
2023-02-26T11:50:34.579Z,7.36
2023-02-26T11:53:08.439Z,7.38
2023-02-26T11:55:48.285Z,7.39
2023-02-26T11:58:23.548Z,7.54
2023-02-26T12:00:57.952Z,7.57
2023-02-26T12:03:33.445Z,7.62
2023-02-26T12:06:04.861Z,7.54
2023-02-26T12:08:38.655Z,7.49
2023-02-26T12:11:31.528Z,7.49
2023-02-26T12:14:13.909Z,7.50
2023-02-26T12:17:07.219Z,7.43
2023-02-26T12:19:42.628Z,7.29
2023-02-26T12:22:35.413Z,7.24
2023-02-26T12:25:14.896Z,7.21
2023-02-26T12:28:01.078Z,7.02
2023-02-26T12:31:27.765Z,6.84
2023-02-26T12:34:23.609Z,6.68
2023-02-26T12:37:10.037Z,6.54
2023-02-26T12:39:56.144Z,6.49
2023-02-26T12:42:45.382Z,6.50
2023-02-26T12:45:53.940Z,6.43
2023-02-26T12:48:54.814Z,6.46
2023-02-26T12:51:49.250Z,6.42
2023-02-26T12:54:50.683Z,6.40
2023-02-26T12:57:24.087Z,6.32
2023-02-26T13:00:18.917Z,6.33
2023-02-26T13:03:15.041Z,6.30
2023-02-26T13:06:01.335Z,6.33
2023-02-26T13:09:04.058Z,6.37
2023-02-26T13:11:59.099Z,6.44
2023-02-26T13:15:05.172Z,6.37
2023-02-26T13:17:44.556Z,6.29
2023-02-26T13:20:22.312Z,6.17
2023-02-26T13:23:02.073Z,6.21
2023-02-26T13:25:39.251Z,6.22
2023-02-26T13:28:30.995Z,6.15
2023-02-26T13:31:00.882Z,6.19
2023-02-26T13:33:31.931Z,6.19
2023-02-26T13:36:01.501Z,6.18
2023-02-26T13:38:46.763Z,6.22
2023-02-26T13:41:38.329Z,6.22
2023-02-26T13:44:39.117Z,6.17
2023-02-26T13:47:30.024Z,6.20
2023-02-26T13:50:30.798Z,6.18
2023-02-26T13:53:25.030Z,6.19
2023-02-26T13:55:54.342Z,6.19
2023-02-26T13:58:24.845Z,6.22
2023-02-26T14:01:25.787Z,6.21
2023-02-26T14:04:09.551Z,6.16
2023-02-26T14:06:43.661Z,6.19
2023-02-26T14:09:23.631Z,6.22
2023-02-26T14:12:02.799Z,6.23
2023-02-26T14:14:35.653Z,6.14
2023-02-26T14:17:07.317Z,6.13
2023-02-26T14:19:39.068Z,5.98
2023-02-26T14:22:23.891Z,5.89
2023-02-26T14:24:56.787Z,5.82
2023-02-26T14:27:35.910Z,5.90
2023-02-26T14:30:09.607Z,5.91
2023-02-26T14:32:55.099Z,5.95
2023-02-26T14:35:30.017Z,5.93
2023-02-26T14:38:16.872Z,5.90
2023-02-26T14:40:50.636Z,5.87
2023-02-26T14:43:37.573Z,5.88
2023-02-26T14:46:07.123Z,5.83
2023-02-26T14:48:39.657Z,5.79
2023-02-26T14:51:27.191Z,5.85
2023-02-26T14:54:04.295Z,5.76
2023-02-26T14:56:50.594Z,5.79
2023-02-26T14:59:46.228Z,5.82
2023-02-26T15:02:27.139Z,5.81
2023-02-26T15:04:57.551Z,5.80
2023-02-26T15:07:45.582Z,5.75
2023-02-26T15:10:46.124Z,5.72
2023-02-26T15:13:23.156Z,5.69
2023-02-26T15:16:00.888Z,5.68
2023-02-26T15:18:34.495Z,5.58
2023-02-26T15:21:07.726Z,5.53
2023-02-26T15:23:41.033Z,5.45
2023-02-26T15:26:18.581Z,5.45
2023-02-26T15:28:49.186Z,5.54
2023-02-26T15:31:20.948Z,5.47
2023-02-26T15:33:50.034Z,5.52
2023-02-26T15:36:22.082Z,5.59
2023-02-26T15:39:01.073Z,5.63
2023-02-26T15:41:31.606Z,5.66
2023-02-26T15:44:10.777Z,5.74
2023-02-26T15:46:41.778Z,5.80
2023-02-26T15:49:15.870Z,5.82
2023-02-26T15:51:45.100Z,5.81
2023-02-26T15:54:22.553Z,5.78
2023-02-26T15:56:54.869Z,5.73
2023-02-26T15:59:29.125Z,5.71
2023-02-26T16:01:56.873Z,5.75
2023-02-26T16:04:25.066Z,5.76
2023-02-26T16:06:57.251Z,5.72
2023-02-26T16:09:34.933Z,5.62
2023-02-26T16:12:10.826Z,5.60
2023-02-26T16:14:42.400Z,5.67
2023-02-26T16:17:19.145Z,5.65
2023-02-26T16:19:50.588Z,5.62
2023-02-26T16:22:24.182Z,5.57
2023-02-26T16:25:25.447Z,5.54
2023-02-26T16:28:04.825Z,5.53
2023-02-26T16:30:36.047Z,5.48
2023-02-26T16:33:13.839Z,5.49
2023-02-26T16:35:53.799Z,5.54
2023-02-26T16:38:46.221Z,5.55
2023-02-26T16:41:14.717Z,5.46
2023-02-26T16:43:45.466Z,5.34
2023-02-26T16:46:38.230Z,5.35
2023-02-26T16:49:22.939Z,5.28
2023-02-26T16:51:52.083Z,5.27
2023-02-26T16:54:27.424Z,5.37
2023-02-26T16:57:13.531Z,5.32
2023-02-26T16:59:45.371Z,5.28
2023-02-26T17:02:18.626Z,5.22
2023-02-26T17:04:52.754Z,5.03
2023-02-26T17:07:25.540Z,5.10
2023-02-26T17:09:58.568Z,5.09
2023-02-26T17:12:46.677Z,5.16
2023-02-26T17:15:19.190Z,5.13
2023-02-26T17:17:51.500Z,5.07
2023-02-26T17:20:19.415Z,5.09
2023-02-26T17:22:47.022Z,5.13
2023-02-26T17:25:20.903Z,5.14
2023-02-26T17:27:49.128Z,5.12
2023-02-26T17:30:20.469Z,4.88
2023-02-26T17:32:48.366Z,4.82
2023-02-26T17:35:20.521Z,4.70
2023-02-26T17:37:49.158Z,4.58
2023-02-26T17:40:25.276Z,4.49
2023-02-26T17:42:53.717Z,4.51
2023-02-26T17:45:21.885Z,4.59
2023-02-26T17:47:50.431Z,4.66
2023-02-26T17:50:40.419Z,4.66
2023-02-26T17:53:11.597Z,4.53
2023-02-26T17:55:40.299Z,4.49
2023-02-26T17:58:22.641Z,4.47
2023-02-26T18:00:53.323Z,4.55
2023-02-26T18:03:21.226Z,4.58
2023-02-26T18:05:50.829Z,4.44
2023-02-26T18:08:23.850Z,4.38
2023-02-26T18:10:52.779Z,4.41
2023-02-26T18:13:22.087Z,4.47
2023-02-26T18:15:51.008Z,4.33
2023-02-26T18:18:21.296Z,4.32
2023-02-26T18:20:49.017Z,4.39
2023-02-26T18:23:38.247Z,4.35
2023-02-26T18:26:06.200Z,4.41
2023-02-26T18:28:34.958Z,4.37
2023-02-26T18:31:08.643Z,4.38
2023-02-26T18:33:41.505Z,4.41
2023-02-26T18:36:24.265Z,4.32
2023-02-26T18:38:51.938Z,4.26
2023-02-26T18:41:19.564Z,4.28
2023-02-26T18:43:47.394Z,4.38
2023-02-26T18:46:15.230Z,4.40
2023-02-26T18:48:42.833Z,4.47
2023-02-26T18:51:11.405Z,4.44
2023-02-26T18:53:39.515Z,4.46
2023-02-26T18:56:09.239Z,4.49
2023-02-26T18:58:40.289Z,4.50
2023-02-26T19:01:13.266Z,4.44
2023-02-26T19:03:40.963Z,4.41
2023-02-26T19:06:12.562Z,4.37
2023-02-26T19:08:41.903Z,4.41
2023-02-26T19:11:09.425Z,4.39
2023-02-26T19:13:38.032Z,4.39
2023-02-26T19:16:05.999Z,4.46
2023-02-26T19:18:33.629Z,4.43
2023-02-26T19:21:02.585Z,4.36
2023-02-26T19:23:32.795Z,4.32
2023-02-26T19:26:00.408Z,4.22
2023-02-26T19:28:27.992Z,4.25
2023-02-26T19:30:55.723Z,4.24
2023-02-26T19:33:24.645Z,4.20
2023-02-26T19:35:52.924Z,4.29
2023-02-26T19:38:20.464Z,4.29
2023-02-26T19:40:48.495Z,4.22
2023-02-26T19:43:16.120Z,4.11
2023-02-26T19:45:43.767Z,4.21
2023-02-26T19:48:14.598Z,4.22
2023-02-26T19:50:42.586Z,4.17
2023-02-26T19:53:10.215Z,4.16
2023-02-26T19:55:38.976Z,4.10
2023-02-26T19:58:09.123Z,4.17
2023-02-26T20:00:37.064Z,4.27
2023-02-26T20:03:04.908Z,4.33
2023-02-26T20:05:32.983Z,4.31
2023-02-26T20:08:00.619Z,4.28
2023-02-26T20:10:29.310Z,4.30
2023-02-26T20:12:58.408Z,4.32
2023-02-26T20:15:25.929Z,4.43
2023-02-26T20:17:53.496Z,4.47
2023-02-26T20:20:23.102Z,4.39
2023-02-26T20:22:50.737Z,4.37
2023-02-26T20:25:20.001Z,4.44
2023-02-26T20:27:47.652Z,4.39
2023-02-26T20:30:15.724Z,4.36
2023-02-26T20:32:43.619Z,4.47
2023-02-26T20:35:11.333Z,4.53
2023-02-26T20:37:40.145Z,4.43
2023-02-26T20:40:10.525Z,4.56
2023-02-26T20:42:38.973Z,4.47
2023-02-26T20:45:09.503Z,4.49
2023-02-26T20:47:39.801Z,4.36
2023-02-26T20:50:07.944Z,4.26
2023-02-26T20:52:37.644Z,4.18
2023-02-26T20:55:06.149Z,4.14
2023-02-26T20:57:35.439Z,4.04
2023-02-26T21:00:10.430Z,3.87
2023-02-26T21:02:38.674Z,3.91
2023-02-26T21:05:07.443Z,3.86
2023-02-26T21:07:39.506Z,3.83
2023-02-26T21:10:10.981Z,3.80
2023-02-26T21:12:39.254Z,3.87
2023-02-26T21:15:11.327Z,3.88
2023-02-26T21:17:41.033Z,3.91
2023-02-26T21:20:18.258Z,3.84
2023-02-26T21:22:46.785Z,3.79
2023-02-26T21:25:14.536Z,3.66
2023-02-26T21:27:42.448Z,3.61
2023-02-26T21:30:12.097Z,3.58
2023-02-26T21:32:40.895Z,3.62
2023-02-26T21:35:16.086Z,3.62
2023-02-26T21:37:45.609Z,3.70
2023-02-26T21:40:14.851Z,3.70
2023-02-26T21:42:43.426Z,3.63
2023-02-26T21:45:12.317Z,3.62
2023-02-26T21:47:39.992Z,3.69
2023-02-26T21:50:10.712Z,3.67
2023-02-26T21:52:41.639Z,3.70
2023-02-26T21:55:09.851Z,3.72
2023-02-26T21:57:37.408Z,3.70
2023-02-26T22:00:06.491Z,3.65
2023-02-26T22:02:39.814Z,3.64
2023-02-26T22:05:07.709Z,3.65
2023-02-26T22:07:35.857Z,3.63
2023-02-26T22:10:05.070Z,3.67
2023-02-26T22:12:33.656Z,3.60
2023-02-26T22:15:01.267Z,3.57
2023-02-26T22:17:31.227Z,3.69
2023-02-26T22:19:58.961Z,3.62
2023-02-26T22:22:27.104Z,3.56
2023-02-26T22:24:55.187Z,3.61
2023-02-26T22:27:23.331Z,3.64
2023-02-26T22:29:51.039Z,3.66
2023-02-26T22:32:18.893Z,3.61
2023-02-26T22:34:46.924Z,3.51
2023-02-26T22:37:14.669Z,3.76
2023-02-26T22:39:42.674Z,3.58
2023-02-26T22:42:10.478Z,3.47
2023-02-26T22:44:38.128Z,3.46
2023-02-26T22:47:05.825Z,3.55
2023-02-26T22:49:33.663Z,3.53
2023-02-26T22:52:01.216Z,3.58
2023-02-26T22:54:28.834Z,3.46
2023-02-26T22:56:57.206Z,3.58
2023-02-26T22:59:25.217Z,3.54
2023-02-26T23:01:53.589Z,3.68
2023-02-26T23:04:21.695Z,3.90
2023-02-26T23:06:49.295Z,3.85
2023-02-26T23:09:18.199Z,3.67
2023-02-26T23:11:46.581Z,3.61
2023-02-26T23:14:14.495Z,3.61
2023-02-26T23:16:47.497Z,3.59
2023-02-26T23:19:15.394Z,3.67
2023-02-26T23:21:43.236Z,3.66
2023-02-26T23:24:10.956Z,3.66
2023-02-26T23:26:38.689Z,3.66
2023-02-26T23:29:09.857Z,3.63
2023-02-26T23:31:37.688Z,3.65
2023-02-26T23:34:07.092Z,3.61
2023-02-26T23:36:35.943Z,3.67
2023-02-26T23:39:04.110Z,3.65
2023-02-26T23:41:32.728Z,3.60
2023-02-26T23:44:00.398Z,3.61
2023-02-26T23:46:29.583Z,3.59
2023-02-26T23:48:58.236Z,3.59
2023-02-26T23:51:27.763Z,3.59
2023-02-26T23:53:55.822Z,3.53
2023-02-26T23:56:23.967Z,3.55
2023-02-26T23:58:52.512Z,3.60
